Time;durP1;ratioP1;P1;durP2;ratioP2;P2;SDS_P1;SDS_P2;PMS_P1;PMS_P2;Temp;Humidity;BMP_temperature;BMP_pressure;BME280_temperature;BME280_humidity;BME280_pressure;Samples;Min_cycle;Max_cycle;Signal;HPM_P1;HPM_P2
2022/03/20 00:04:22;;;;;;;10.87;6.03;;;22.30;53.00;;;;;;4987805;28;20177;-89
2022/03/20 00:06:49;;;;;;;11.30;6.93;;;22.30;53.10;;;;;;4969989;28;20421;-88
2022/03/20 00:09:14;;;;;;;8.93;5.80;;;22.30;53.10;;;;;;4987887;28;20200;-87
2022/03/20 00:11:40;;;;;;;10.00;6.50;;;22.30;53.00;;;;;;4970484;28;20783;-88
2022/03/20 00:14:06;;;;;;;10.97;7.00;;;22.30;53.00;;;;;;4970428;28;20293;-88
2022/03/20 00:16:32;;;;;;;13.17;7.03;;;22.30;53.00;;;;;;4971144;28;20213;-88
2022/03/20 00:25:44;;;;;;;11.47;6.90;;;22.30;53.00;;;;;;4987781;28;20436;-88
2022/03/20 00:28:12;;;;;;;15.77;6.97;;;22.30;53.10;;;;;;4970215;28;20433;-88
2022/03/20 00:30:41;;;;;;;11.83;7.90;;;22.30;53.10;;;;;;4969775;28;20459;-88
2022/03/20 00:33:08;;;;;;;9.40;6.20;;;22.30;53.10;;;;;;4987171;28;20412;-88
2022/03/20 00:35:34;;;;;;;9.40;6.33;;;22.30;53.00;;;;;;4970642;28;20424;-89
2022/03/20 00:38:00;;;;;;;10.03;6.03;;;22.30;53.00;;;;;;4986229;28;20421;-89
2022/03/20 00:40:26;;;;;;;13.17;7.37;;;22.30;53.00;;;;;;4987835;28;20228;-89
2022/03/20 00:42:52;;;;;;;9.70;6.23;;;22.30;53.00;;;;;;4986364;28;20169;-88
2022/03/20 00:45:18;;;;;;;14.70;7.03;;;22.30;53.00;;;;;;4969792;28;20480;-88
2022/03/20 00:47:44;;;;;;;9.30;5.93;;;22.30;53.00;;;;;;4987213;28;20417;-88
2022/03/20 00:50:09;;;;;;;11.77;6.83;;;22.30;53.00;;;;;;4969426;28;20251;-89
2022/03/20 00:52:35;;;;;;;8.70;5.90;;;22.30;53.20;;;;;;4987260;28;20174;-88
2022/03/20 00:55:02;;;;;;;8.03;6.07;;;22.30;53.00;;;;;;4986824;28;20178;-89
2022/03/20 00:57:28;;;;;;;12.03;6.67;;;22.30;53.00;;;;;;4969255;28;20433;-88
2022/03/20 00:59:54;;;;;;;8.93;6.07;;;22.30;53.00;;;;;;4969604;28;20429;-88
2022/03/20 01:02:20;;;;;;;7.97;5.70;;;22.30;53.00;;;;;;4969216;28;20427;-89
2022/03/20 01:04:46;;;;;;;11.87;6.70;;;22.30;53.00;;;;;;4970506;28;20181;-89
2022/03/20 01:07:12;;;;;;;12.30;6.23;;;22.30;53.00;;;;;;4989451;28;20420;-88
2022/03/20 01:09:38;;;;;;;10.40;5.73;;;22.30;53.00;;;;;;4973656;28;20201;-88
2022/03/20 01:12:06;;;;;;;7.00;5.73;;;22.30;52.90;;;;;;4973168;28;20181;-88
2022/03/20 01:14:32;;;;;;;10.43;5.60;;;22.30;53.00;;;;;;4991143;28;20409;-88
2022/03/20 01:16:58;;;;;;;10.47;5.63;;;22.30;53.00;;;;;;4990331;28;20415;-88
2022/03/20 01:19:25;;;;;;;8.40;5.40;;;22.30;52.90;;;;;;4990619;28;20437;-89
2022/03/20 01:21:51;;;;;;;9.83;5.50;;;22.30;52.90;;;;;;4990571;28;20441;-88
2022/03/20 01:24:17;;;;;;;8.40;5.63;;;22.30;52.90;;;;;;4990588;28;20413;-88
2022/03/20 01:26:43;;;;;;;8.87;5.17;;;22.30;52.90;;;;;;4973285;28;20423;-89
2022/03/20 01:29:09;;;;;;;12.00;6.00;;;22.30;52.90;;;;;;4991159;28;20189;-88
2022/03/20 01:31:35;;;;;;;9.23;5.90;;;22.30;53.00;;;;;;4990198;28;20169;-88
2022/03/20 01:34:02;;;;;;;8.60;5.63;;;22.30;52.90;;;;;;4972333;28;20205;-88
2022/03/20 01:36:28;;;;;;;11.27;6.10;;;22.30;52.90;;;;;;4990480;28;20413;-88
2022/03/20 01:38:54;;;;;;;8.37;4.73;;;22.30;52.90;;;;;;4973290;28;20433;-88
2022/03/20 01:41:21;;;;;;;9.40;5.27;;;22.30;52.90;;;;;;4989978;28;20170;-89
2022/03/20 01:43:51;;;;;;;7.17;5.03;;;22.30;52.90;;;;;;4989828;28;20428;-88
2022/03/20 01:46:18;;;;;;;11.33;5.90;;;22.30;52.90;;;;;;4972854;28;20424;-88
2022/03/20 01:48:44;;;;;;;7.70;4.93;;;22.20;52.90;;;;;;4972040;28;20455;-89
2022/03/20 01:51:10;;;;;;;8.77;4.60;;;22.20;52.90;;;;;;4973253;28;20409;-88
2022/03/20 01:53:36;;;;;;;7.50;5.30;;;22.20;52.90;;;;;;4988665;28;20448;-89
2022/03/20 01:56:02;;;;;;;7.10;5.20;;;22.20;52.90;;;;;;4988434;28;20416;-88
2022/03/20 01:58:28;;;;;;;8.73;6.37;;;22.20;52.90;;;;;;4972927;28;20413;-87
2022/03/20 02:00:54;;;;;;;8.10;5.10;;;22.20;52.90;;;;;;4972854;28;20417;-87
2022/03/20 02:03:20;;;;;;;10.47;6.30;;;22.20;52.90;;;;;;4972308;28;20208;-88
2022/03/20 02:05:45;;;;;;;7.60;5.03;;;22.20;52.90;;;;;;4972580;28;20539;-88
2022/03/20 02:08:12;;;;;;;7.10;4.70;;;22.20;52.90;;;;;;4973228;28;20174;-88
2022/03/20 02:10:40;;;;;;;6.87;4.70;;;22.20;52.90;;;;;;4972543;28;20209;-88
2022/03/20 02:13:07;;;;;;;5.47;4.03;;;22.20;52.80;;;;;;4988723;28;20512;-88
2022/03/20 02:15:34;;;;;;;8.13;4.73;;;22.20;52.80;;;;;;4972347;28;20421;-88
2022/03/20 02:18:00;;;;;;;5.63;4.30;;;22.20;52.90;;;;;;4972222;28;20444;-88
2022/03/20 02:20:29;;;;;;;9.63;4.90;;;22.20;52.80;;;;;;4990028;28;20421;-88
2022/03/20 02:22:55;;;;;;;9.13;4.37;;;22.20;52.90;;;;;;4988807;28;20409;-89
2022/03/20 02:25:21;;;;;;;7.60;4.83;;;22.20;52.90;;;;;;4989967;28;20417;-89
2022/03/20 02:27:47;;;;;;;6.80;4.87;;;22.20;52.90;;;;;;4989449;28;20424;-89
2022/03/20 02:30:16;;;;;;;6.70;4.47;;;22.20;52.90;;;;;;4989334;28;20338;-88
2022/03/20 02:32:51;;;;;;;9.60;5.47;;;22.20;52.90;;;;;;4972392;28;20184;-87
2022/03/20 02:35:19;;;;;;;10.93;5.30;;;22.20;52.90;;;;;;4972288;28;20903;-89
2022/03/20 02:37:53;;;;;;;6.20;4.33;;;22.10;52.80;;;;;;4972201;28;20911;-88
2022/03/20 02:40:21;;;;;;;7.23;4.87;;;22.20;52.90;;;;;;4997202;28;20427;-88
2022/03/20 02:42:51;;;;;;;7.43;5.37;;;22.10;52.90;;;;;;5008622;28;20427;-88
2022/03/20 02:45:22;;;;;;;9.13;4.63;;;22.10;53.50;;;;;;4989872;28;20437;-88
2022/03/20 02:47:49;;;;;;;6.43;4.60;;;22.10;52.90;;;;;;4989175;28;20437;-89
2022/03/20 02:50:17;;;;;;;6.10;4.70;;;22.10;52.90;;;;;;4989202;28;20461;-88
2022/03/20 02:52:59;;;;;;;6.57;4.50;;;22.10;52.90;;;;;;4972143;28;20436;-88
2022/03/20 02:55:28;;;;;;;5.60;4.20;;;22.10;52.90;;;;;;4971812;28;20448;-89
2022/03/20 02:57:56;;;;;;;5.83;4.77;;;22.10;52.90;;;;;;4988884;28;20465;-88
2022/03/20 03:00:25;;;;;;;6.57;4.60;;;22.10;53.00;;;;;;4971613;28;20425;-88
2022/03/20 03:02:54;;;;;;;6.10;3.90;;;22.10;53.00;;;;;;4971015;28;20425;-88
2022/03/20 03:05:21;;;;;;;6.33;4.43;;;22.10;53.00;;;;;;4989021;28;20488;-88
2022/03/20 03:10:57;;;;;;;6.53;4.90;;;22.10;53.00;;;;;;4989122;28;20553;-88
2022/03/20 03:13:26;;;;;;;6.40;4.40;;;22.10;53.00;;;;;;4971028;28;20409;-88
2022/03/20 03:15:53;;;;;;;7.60;4.50;;;22.10;53.00;;;;;;4970825;28;20502;-89
2022/03/20 03:18:20;;;;;;;7.50;4.10;;;22.00;52.90;;;;;;4987326;28;20429;-87
2022/03/20 03:20:47;;;;;;;6.77;4.13;;;22.00;52.90;;;;;;4987747;28;20425;-87
2022/03/20 03:23:16;;;;;;;4.53;3.20;;;22.00;52.90;;;;;;4988731;28;20413;-87
2022/03/20 03:25:42;;;;;;;9.00;5.57;;;22.00;53.00;;;;;;4970743;28;20421;-87
2022/03/20 03:28:10;;;;;;;6.33;4.00;;;22.00;53.00;;;;;;4986960;28;20440;-87
2022/03/20 03:30:37;;;;;;;8.27;5.10;;;22.00;53.00;;;;;;4968469;28;20221;-87
2022/03/20 03:33:03;;;;;;;6.57;4.83;;;22.00;53.00;;;;;;4980847;28;20425;-86
2022/03/20 03:35:51;;;;;;;6.50;4.43;;;22.00;53.00;;;;;;4970797;28;20974;-89
2022/03/20 03:38:19;;;;;;;6.57;4.70;;;22.00;53.00;;;;;;4971055;28;20180;-88
2022/03/20 03:40:47;;;;;;;5.93;4.47;;;22.00;53.00;;;;;;4987780;28;20484;-88
2022/03/20 03:43:15;;;;;;;6.60;4.87;;;22.00;53.00;;;;;;4987891;28;20424;-89
2022/03/20 03:45:41;;;;;;;6.20;5.60;;;22.00;53.00;;;;;;4970062;28;20416;-88
2022/03/20 03:48:08;;;;;;;5.23;4.53;;;22.00;53.00;;;;;;4970188;28;20452;-88
2022/03/20 03:50:36;;;;;;;5.60;3.80;;;22.00;53.00;;;;;;4954314;28;20464;-88
2022/03/20 03:53:03;;;;;;;6.30;3.90;;;22.00;52.90;;;;;;4970033;28;20424;-88
2022/03/20 03:55:32;;;;;;;5.33;4.50;;;22.10;53.00;;;;;;4969838;28;20452;-89
2022/03/20 03:57:59;;;;;;;7.70;4.30;;;22.10;53.60;;;;;;4969723;28;20421;-88
2022/03/20 04:00:27;;;;;;;5.60;4.10;;;22.10;53.00;;;;;;4987037;28;20923;-89
2022/03/20 04:02:53;;;;;;;6.13;4.70;;;22.00;52.90;;;;;;4969467;28;21033;-88
2022/03/20 04:05:19;;;;;;;5.10;3.70;;;22.10;53.00;;;;;;4987527;28;20421;-88
2022/03/20 04:07:48;;;;;;;5.73;4.10;;;22.10;53.00;;;;;;4970286;28;20181;-88
2022/03/20 04:10:16;;;;;;;7.57;4.00;;;22.10;52.90;;;;;;4987473;28;20463;-88
2022/03/20 04:12:43;;;;;;;4.83;3.73;;;22.10;53.00;;;;;;4970047;28;20471;-89
2022/03/20 04:15:13;;;;;;;5.93;4.57;;;22.10;53.00;;;;;;4969562;28;20425;-89
2022/03/20 04:17:40;;;;;;;6.47;4.07;;;22.10;53.00;;;;;;4969352;28;20414;-89
2022/03/20 04:20:11;;;;;;;5.20;3.90;;;22.10;53.00;;;;;;4986386;28;20425;-88
2022/03/20 04:22:39;;;;;;;5.27;4.60;;;22.10;53.00;;;;;;4969172;28;20436;-88
2022/03/20 04:25:05;;;;;;;5.50;3.43;;;22.10;53.00;;;;;;4986192;28;20416;-89
2022/03/20 04:27:32;;;;;;;5.00;4.03;;;22.00;52.90;;;;;;4966534;29;20433;-89
2022/03/20 04:29:58;;;;;;;7.27;4.43;;;22.00;52.90;;;;;;4978880;28;20467;-88
2022/03/20 04:32:24;;;;;;;6.43;4.23;;;22.00;52.90;;;;;;4987332;28;20421;-88
2022/03/20 04:34:51;;;;;;;5.53;4.10;;;22.00;52.90;;;;;;4969532;28;20444;-88
2022/03/20 04:37:18;;;;;;;6.70;4.37;;;22.00;52.90;;;;;;4987321;28;20188;-88
2022/03/20 04:39:44;;;;;;;6.13;4.20;;;22.00;52.90;;;;;;4970490;28;20436;-89
2022/03/20 04:42:10;;;;;;;6.00;4.27;;;22.00;52.90;;;;;;4968726;28;20428;-89
2022/03/20 04:44:40;;;;;;;4.33;3.77;;;22.00;52.90;;;;;;4969567;28;20439;-88
2022/03/20 04:58:29;;;;;;;6.27;4.07;;;22.00;52.90;;;;;;4967291;29;20438;-89
2022/03/20 05:00:54;;;;;;;8.80;5.30;;;21.90;53.00;;;;;;4987119;28;20533;-88
2022/03/20 05:06:43;;;;;;;5.77;4.40;;;21.90;53.00;;;;;;4986549;28;20476;-89
2022/03/20 05:15:11;;;;;;;6.60;4.23;;;21.90;53.10;;;;;;4986359;28;20471;-89
2022/03/20 05:17:40;;;;;;;6.27;3.80;;;21.90;53.10;;;;;;4986522;28;20409;-89
2022/03/20 05:20:06;;;;;;;4.63;4.10;;;21.90;53.10;;;;;;4986193;28;20205;-88
2022/03/20 05:22:36;;;;;;;5.47;3.80;;;21.90;53.10;;;;;;4969073;28;20516;-89
2022/03/20 05:25:07;;;;;;;7.10;4.60;;;21.90;53.10;;;;;;4969644;28;20421;-89
2022/03/20 05:27:36;;;;;;;4.30;3.90;;;21.90;53.10;;;;;;4969164;28;20501;-89
2022/03/20 05:30:04;;;;;;;4.97;4.00;;;21.90;53.10;;;;;;4969540;28;20467;-89
2022/03/20 05:32:32;;;;;;;4.77;4.03;;;21.90;53.10;;;;;;4968887;28;20410;-89
2022/03/20 05:34:58;;;;;;;5.27;4.27;;;21.90;53.10;;;;;;4986148;28;20435;-89
2022/03/20 05:37:24;;;;;;;4.57;3.93;;;21.90;53.10;;;;;;4986255;28;20410;-89
2022/03/20 05:39:50;;;;;;;5.10;3.90;;;21.90;53.10;;;;;;4986012;28;20432;-89
2022/03/20 05:42:15;;;;;;;5.10;3.90;;;21.90;53.10;;;;;;4986188;28;20577;-88
2022/03/20 05:44:44;;;;;;;5.00;4.20;;;21.90;53.10;;;;;;4986261;28;20189;-89
2022/03/20 05:47:10;;;;;;;5.80;4.00;;;21.90;53.10;;;;;;4968913;28;20245;-89
2022/03/20 05:49:36;;;;;;;5.17;3.57;;;21.90;53.10;;;;;;4969426;28;20460;-89
2022/03/20 05:52:04;;;;;;;5.80;4.67;;;21.90;53.10;;;;;;4969427;28;20439;-89
2022/03/20 05:54:30;;;;;;;4.83;3.50;;;21.90;53.10;;;;;;4972425;28;20421;-89
2022/03/20 05:59:44;;;;;;;6.27;4.63;;;21.90;53.10;;;;;;4990006;28;20173;-89
2022/03/20 06:02:10;;;;;;;6.40;3.73;;;21.90;53.10;;;;;;4972105;28;20423;-88
2022/03/20 06:04:37;;;;;;;4.40;3.57;;;21.90;53.10;;;;;;4972487;28;20452;-89
2022/03/20 06:07:03;;;;;;;4.50;3.60;;;21.90;53.10;;;;;;4972113;28;20461;-89
2022/03/20 06:09:30;;;;;;;5.23;4.10;;;21.90;53.10;;;;;;4989249;28;20460;-89
2022/03/20 06:11:56;;;;;;;4.90;4.10;;;21.90;53.10;;;;;;4972231;28;20425;-89
2022/03/20 06:14:22;;;;;;;5.90;4.00;;;21.90;53.10;;;;;;4972295;28;20508;-88
2022/03/20 06:16:48;;;;;;;5.83;3.80;;;21.90;53.10;;;;;;4972083;28;20425;-89
2022/03/20 06:19:15;;;;;;;4.30;3.83;;;22.00;53.20;;;;;;4989388;28;20457;-90
2022/03/20 06:21:43;;;;;;;5.17;3.97;;;22.00;53.10;;;;;;4972535;28;20424;-89
2022/03/20 06:24:10;;;;;;;4.30;3.50;;;22.00;53.10;;;;;;4971585;28;20421;-89
2022/03/20 06:26:37;;;;;;;4.73;3.73;;;22.00;53.10;;;;;;4971348;28;20417;-89
2022/03/20 06:29:05;;;;;;;3.77;3.40;;;22.00;53.10;;;;;;4972092;28;20485;-89
2022/03/20 06:31:31;;;;;;;4.57;3.17;;;22.00;53.10;;;;;;4971580;28;20417;-89
2022/03/20 06:33:58;;;;;;;6.23;3.63;;;22.00;53.10;;;;;;4971973;28;20417;-89
2022/03/20 06:36:24;;;;;;;4.50;3.33;;;22.00;53.10;;;;;;4971948;28;20413;-89
2022/03/20 06:38:50;;;;;;;4.07;3.30;;;22.00;53.10;;;;;;4971383;28;20421;-89
2022/03/20 06:41:18;;;;;;;3.87;3.50;;;22.00;53.10;;;;;;4989420;28;20401;-88
2022/03/20 06:43:44;;;;;;;5.43;3.60;;;22.00;53.10;;;;;;4972272;28;20194;-87
2022/03/20 06:46:10;;;;;;;4.13;3.73;;;22.00;53.10;;;;;;4971754;28;20414;-90
2022/03/20 06:48:36;;;;;;;4.97;3.70;;;22.00;53.10;;;;;;4972469;28;20844;-88
2022/03/20 06:51:04;;;;;;;5.27;4.00;;;22.10;53.20;;;;;;4989145;28;20414;-88
2022/03/20 06:53:30;;;;;;;4.83;3.60;;;22.10;53.20;;;;;;4972056;28;20432;-87
2022/03/20 06:55:57;;;;;;;4.03;3.33;;;22.10;53.20;;;;;;4971439;28;20413;-87
2022/03/20 06:58:23;;;;;;;4.93;4.20;;;22.10;53.20;;;;;;4971329;28;20413;-88
2022/03/20 07:00:51;;;;;;;4.60;3.60;;;22.10;53.20;;;;;;4989553;28;20413;-88
2022/03/20 07:03:17;;;;;;;4.63;3.70;;;22.10;53.20;;;;;;4988459;28;20409;-88
2022/03/20 07:05:43;;;;;;;4.40;3.90;;;22.10;53.20;;;;;;4987890;28;20460;-88
2022/03/20 07:08:09;;;;;;;8.70;4.80;;;22.10;53.20;;;;;;4971564;28;20455;-88
2022/03/20 07:10:36;;;;;;;5.30;4.30;;;22.10;53.20;;;;;;4971418;28;20209;-88
2022/03/20 07:15:49;;;;;;;5.93;4.37;;;22.10;53.20;;;;;;4989371;28;20392;-88
2022/03/20 07:18:17;;;;;;;7.03;5.67;;;22.10;53.20;;;;;;4971463;28;20413;-87
2022/03/20 07:20:46;;;;;;;7.90;6.43;;;22.10;53.20;;;;;;4972351;28;20421;-87
2022/03/20 07:23:13;;;;;;;8.27;5.93;;;22.10;53.20;;;;;;4988577;28;20409;-88
2022/03/20 07:31:10;;;;;;;9.13;7.67;;;22.10;53.30;;;;;;4988466;28;20393;-88
2022/03/20 07:33:36;;;;;;;10.07;7.93;;;22.10;53.30;;;;;;4988307;28;20483;-88
2022/03/20 07:36:04;;;;;;;10.80;7.53;;;22.10;53.30;;;;;;4988879;28;20415;-88
2022/03/20 07:38:30;;;;;;;12.23;8.03;;;22.10;53.30;;;;;;4971501;28;20427;-88
2022/03/20 07:40:55;;;;;;;7.47;6.43;;;22.10;53.40;;;;;;4988456;28;20421;-88
2022/03/20 07:43:22;;;;;;;10.00;7.77;;;22.10;53.40;;;;;;4987979;28;20441;-87
2022/03/20 07:45:47;;;;;;;9.63;7.23;;;22.20;53.40;;;;;;4969681;28;20184;-88
2022/03/20 07:48:13;;;;;;;9.23;7.97;;;22.20;53.40;;;;;;4969650;29;20402;-87
2022/03/20 07:50:40;;;;;;;9.20;8.17;;;22.20;53.30;;;;;;4977476;28;20256;-89
2022/03/20 07:53:07;;;;;;;11.40;8.70;;;22.20;53.40;;;;;;4970988;28;20429;-88
2022/03/20 07:55:34;;;;;;;9.73;7.63;;;22.20;53.40;;;;;;4988599;28;20417;-88
2022/03/20 07:58:09;;;;;;;9.50;7.10;;;22.20;53.40;;;;;;4970711;28;20440;-89
2022/03/20 08:00:37;;;;;;;8.27;7.40;;;22.20;53.40;;;;;;4970591;28;20748;-89
2022/03/20 08:03:05;;;;;;;7.50;6.37;;;22.20;53.40;;;;;;4988437;28;20416;-89
2022/03/20 08:05:30;;;;;;;9.73;7.57;;;22.20;53.50;;;;;;4987358;28;20425;-89
2022/03/20 08:11:19;;;;;;;11.13;7.40;;;22.30;53.60;;;;;;4969087;29;20170;-89
2022/03/20 08:13:46;;;;;;;8.27;7.40;;;22.20;53.50;;;;;;4952702;29;20413;-89
2022/03/20 08:16:15;;;;;;;7.97;7.00;;;22.20;53.60;;;;;;4952163;29;20413;-89
2022/03/20 08:18:43;;;;;;;8.47;7.03;;;22.20;53.60;;;;;;4951901;29;20410;-89
2022/03/20 08:21:12;;;;;;;8.03;6.50;;;22.20;53.60;;;;;;4951109;29;20407;-89
2022/03/20 08:23:39;;;;;;;9.90;7.40;;;22.20;53.70;;;;;;4951358;29;20434;-89
2022/03/20 08:26:08;;;;;;;7.60;6.80;;;22.30;53.80;;;;;;4968089;29;20453;-89
2022/03/20 08:28:42;;;;;;;8.03;6.80;;;22.30;53.80;;;;;;4951980;29;20449;-89
2022/03/20 08:31:10;;;;;;;8.40;6.83;;;22.30;53.90;;;;;;4968355;29;20885;-89
2022/03/20 08:33:36;;;;;;;7.83;6.70;;;22.30;53.90;;;;;;4950980;29;20794;-88
2022/03/20 08:36:05;;;;;;;7.77;6.27;;;22.30;53.80;;;;;;4950523;29;20414;-89
2022/03/20 08:38:31;;;;;;;8.50;7.43;;;22.30;53.90;;;;;;4951426;29;20418;-89
2022/03/20 08:40:57;;;;;;;7.30;6.50;;;22.30;53.90;;;;;;4966380;29;20426;-89
2022/03/20 08:43:23;;;;;;;9.70;6.90;;;22.30;53.90;;;;;;4951034;29;20449;-89
2022/03/20 08:45:50;;;;;;;9.40;6.43;;;22.30;53.80;;;;;;4950639;29;20460;-89
2022/03/20 08:48:20;;;;;;;12.23;8.70;;;22.20;53.50;;;;;;4951899;29;20178;-89
2022/03/20 08:50:48;;;;;;;7.97;6.87;;;22.30;53.40;;;;;;4950959;29;20468;-87
2022/03/20 08:53:19;;;;;;;9.83;6.60;;;22.30;53.40;;;;;;4951150;29;20428;-88
2022/03/20 08:55:49;;;;;;;8.03;6.80;;;22.30;53.40;;;;;;4968438;29;20486;-88
2022/03/20 08:58:15;;;;;;;8.10;7.27;;;22.20;53.10;;;;;;4951049;29;20425;-90
2022/03/20 09:00:42;;;;;;;8.73;7.73;;;22.20;53.10;;;;;;4986197;28;20492;-90
2022/03/20 09:03:10;;;;;;;10.57;8.00;;;22.20;52.90;;;;;;4969441;28;20417;-90
2022/03/20 09:05:38;;;;;;;9.53;8.23;;;22.20;52.90;;;;;;4970606;28;20440;-89
2022/03/20 09:08:05;;;;;;;8.67;7.40;;;22.20;52.90;;;;;;4969192;28;20487;-89
2022/03/20 09:10:31;;;;;;;8.43;7.00;;;22.20;53.00;;;;;;4969724;28;20464;-89
2022/03/20 09:13:00;;;;;;;9.10;8.07;;;22.20;53.10;;;;;;4969024;28;20942;-88
2022/03/20 09:15:37;;;;;;;7.80;7.10;;;22.20;53.10;;;;;;4986431;28;20420;-88
2022/03/20 09:21:11;;;;;;;10.63;9.50;;;22.20;53.10;;;;;;4987298;28;20392;-90
2022/03/20 09:23:49;;;;;;;9.90;7.37;;;22.20;53.00;;;;;;4985332;28;20512;-90
2022/03/20 09:32:45;;;;;;;10.27;8.33;;;22.20;52.90;;;;;;4932228;29;20440;-89
2022/03/20 09:35:12;;;;;;;8.17;7.40;;;22.10;52.90;;;;;;4933069;29;20430;-90
2022/03/20 09:37:41;;;;;;;9.60;8.50;;;22.20;53.00;;;;;;4931691;29;20443;-90
2022/03/20 09:40:21;;;;;;;;;;;;;;;;;;;;;
2022/03/20 09:42:48;;;;;;;10.63;8.00;;;22.20;52.90;;;;;;4931195;29;20459;-89
2022/03/20 09:45:22;;;;;;;8.87;7.97;;;22.20;52.90;;;;;;4932271;29;20436;-90
2022/03/20 09:50:43;;;;;;;8.47;7.57;;;22.20;52.90;;;;;;4912535;29;20536;-88
2022/03/20 09:53:09;;;;;;;7.67;6.87;;;22.20;52.90;;;;;;4916206;29;20423;-88
2022/03/20 09:55:38;;;;;;;9.60;7.70;;;22.20;52.80;;;;;;4931004;29;20412;-87
2022/03/20 09:58:04;;;;;;;7.90;7.10;;;22.20;52.80;;;;;;4917245;29;20229;-87
2022/03/20 10:00:30;;;;;;;7.63;6.67;;;22.20;52.80;;;;;;4912027;29;20429;-88
2022/03/20 10:02:56;;;;;;;7.33;6.63;;;22.20;52.80;;;;;;4911977;29;20189;-88
2022/03/20 10:05:26;;;;;;;9.43;7.07;;;22.20;52.80;;;;;;4913058;29;20424;-87
2022/03/20 10:07:52;;;;;;;7.40;6.60;;;22.20;52.80;;;;;;4930535;29;20198;-88
2022/03/20 10:10:28;;;;;;;8.37;7.57;;;22.20;52.80;;;;;;4930386;29;20459;-88
2022/03/20 10:12:59;;;;;;;8.30;7.30;;;22.20;52.80;;;;;;4930602;29;20493;-87
2022/03/20 10:15:40;;;;;;;7.50;6.53;;;22.10;52.70;;;;;;4930454;29;20495;-87
2022/03/20 10:18:18;;;;;;;7.67;6.87;;;22.10;52.70;;;;;;4929997;29;20415;-88
2022/03/20 10:20:51;;;;;;;7.50;6.80;;;22.10;52.70;;;;;;4930476;29;20586;-88
2022/03/20 10:23:39;;;;;;;6.50;5.90;;;22.10;52.70;;;;;;4930928;29;20424;-88
2022/03/20 10:26:16;;;;;;;5.87;5.27;;;22.10;52.70;;;;;;4930260;29;20448;-88
2022/03/20 10:28:49;;;;;;;6.93;5.90;;;22.10;52.80;;;;;;4967634;28;20501;-88
2022/03/20 10:31:20;;;;;;;8.53;6.50;;;22.10;52.80;;;;;;4956251;28;20402;-88
2022/03/20 10:34:07;;;;;;;7.20;6.50;;;22.10;52.80;;;;;;4989736;28;20405;-88
2022/03/20 10:36:43;;;;;;;7.83;6.87;;;22.10;52.80;;;;;;4988738;28;20394;-89
2022/03/20 10:39:19;;;;;;;6.10;5.33;;;22.10;52.30;;;;;;4970685;28;20427;-88
2022/03/20 10:41:51;;;;;;;8.40;6.23;;;22.10;52.80;;;;;;4972928;28;20734;-89
2022/03/20 10:44:19;;;;;;;7.20;6.50;;;22.10;52.80;;;;;;4970972;28;20907;-90
2022/03/20 10:47:02;;;;;;;8.90;6.10;;;22.10;52.80;;;;;;4988120;28;20411;-88
2022/03/20 10:49:28;;;;;;;7.67;6.80;;;22.10;52.80;;;;;;4988149;28;20441;-88
2022/03/20 10:52:11;;;;;;;6.10;5.50;;;22.10;53.00;;;;;;4970236;28;20839;-88
2022/03/20 10:54:50;;;;;;;6.53;5.63;;;22.10;52.80;;;;;;4987432;28;20397;-88
2022/03/20 10:57:17;;;;;;;5.77;5.27;;;22.10;52.80;;;;;;4971563;28;20463;-88
2022/03/20 10:59:43;;;;;;;5.77;5.27;;;22.10;52.80;;;;;;4988164;28;20401;-88
2022/03/20 11:02:26;;;;;;;9.20;6.50;;;22.10;52.80;;;;;;4970586;28;20429;-89
2022/03/20 11:04:53;;;;;;;6.20;5.60;;;22.10;52.80;;;;;;4988082;28;20389;-88
2022/03/20 11:07:23;;;;;;;7.70;6.90;;;22.10;52.80;;;;;;4988050;28;20409;-88
2022/03/20 11:10:00;;;;;;;6.13;5.60;;;22.10;52.80;;;;;;4971275;28;20979;-87
2022/03/20 11:12:29;;;;;;;7.27;5.87;;;22.10;52.80;;;;;;4971696;28;20408;-87
2022/03/20 11:14:59;;;;;;;6.23;5.63;;;22.10;52.80;;;;;;4970328;28;20468;-88
2022/03/20 11:17:30;;;;;;;6.00;5.30;;;22.10;52.80;;;;;;4969840;28;20417;-88
2022/03/20 11:19:57;;;;;;;7.37;6.67;;;22.10;52.80;;;;;;4987900;28;20398;-88
2022/03/20 11:22:25;;;;;;;6.10;5.50;;;22.10;52.80;;;;;;4987433;28;20425;-88
2022/03/20 11:24:52;;;;;;;6.87;6.17;;;22.10;52.80;;;;;;4970281;28;20449;-88
2022/03/20 11:27:24;;;;;;;6.23;5.63;;;22.10;52.80;;;;;;4987439;28;20436;-88
2022/03/20 11:30:01;;;;;;;6.10;5.50;;;22.10;52.80;;;;;;4969548;28;20525;-89
2022/03/20 11:32:28;;;;;;;6.80;5.90;;;22.10;52.80;;;;;;4969231;28;20404;-88
2022/03/20 11:34:57;;;;;;;6.30;5.20;;;22.10;52.70;;;;;;4969481;28;20425;-88
2022/03/20 11:37:23;;;;;;;6.37;5.77;;;22.10;52.70;;;;;;4972506;28;20417;-89
2022/03/20 11:40:11;;;;;;;7.23;6.10;;;22.10;52.70;;;;;;4978957;28;20421;-88
2022/03/20 11:42:38;;;;;;;7.53;6.10;;;22.10;52.70;;;;;;5008617;28;20169;-87
2022/03/20 11:45:27;;;;;;;6.40;5.73;;;22.10;52.70;;;;;;4990423;28;20444;-88
2022/03/20 11:48:13;;;;;;;6.63;5.53;;;22.10;52.70;;;;;;4910495;29;20413;-88
2022/03/20 11:50:49;;;;;;;6.43;5.83;;;22.10;52.80;;;;;;4910469;29;20456;-88
2022/03/20 11:53:27;;;;;;;6.70;6.00;;;22.10;52.70;;;;;;4909697;29;20911;-88
2022/03/20 11:55:52;;;;;;;8.53;5.93;;;22.10;52.80;;;;;;4910781;29;20401;-88
2022/03/20 11:58:20;;;;;;;8.67;6.00;;;22.10;52.70;;;;;;4910065;29;20409;-87
2022/03/20 12:01:02;;;;;;;6.33;5.73;;;22.10;52.70;;;;;;4894678;29;20188;-88
2022/03/20 12:03:58;;;;;;;7.80;5.80;;;22.10;52.70;;;;;;4895168;29;20447;-88
2022/03/20 12:06:36;;;;;;;6.80;6.10;;;22.10;52.70;;;;;;4882510;29;20499;-88
2022/03/20 12:09:04;;;;;;;8.27;6.43;;;22.10;52.70;;;;;;4910720;29;20443;-88
2022/03/20 12:11:51;;;;;;;13.00;7.70;;;22.10;52.70;;;;;;4894647;29;20512;-88
2022/03/20 12:14:19;;;;;;;14.10;9.00;;;22.10;52.70;;;;;;4910920;29;20401;-88
2022/03/20 12:16:48;;;;;;;13.00;9.37;;;22.10;52.80;;;;;;4898310;29;20425;-90
2022/03/20 12:19:16;;;;;;;12.77;9.40;;;22.10;52.80;;;;;;4891137;29;20466;-90
2022/03/20 12:22:14;;;;;;;16.30;10.93;;;22.10;52.80;;;;;;4876233;29;20440;-90
2022/03/20 12:24:54;;;;;;;19.90;11.70;;;22.10;52.80;;;;;;4922438;28;20457;-89
2022/03/20 12:27:23;;;;;;;19.83;12.63;;;22.10;52.80;;;;;;4970687;28;20496;-90
2022/03/20 12:30:11;;;;;;;27.03;14.23;;;22.10;52.80;;;;;;4970882;28;20456;-90
2022/03/20 12:32:49;;;;;;;23.00;13.47;;;22.10;52.80;;;;;;4971524;28;20463;-90
2022/03/20 12:35:42;;;;;;;29.00;15.27;;;22.10;52.80;;;;;;4971133;28;20417;-90
2022/03/20 12:38:27;;;;;;;29.13;17.50;;;22.10;52.80;;;;;;4984756;28;20942;-90
2022/03/20 12:40:53;;;;;;;35.07;17.07;;;22.10;52.90;;;;;;4978234;28;20435;-91
2022/03/20 12:43:20;;;;;;;34.10;17.00;;;22.10;52.90;;;;;;4969852;28;20433;-90
2022/03/20 12:45:51;;;;;;;33.47;18.03;;;22.10;52.90;;;;;;4982848;28;20581;-90
2022/03/20 12:48:19;;;;;;;39.37;22.47;;;22.10;53.00;;;;;;4988771;28;20431;-89
2022/03/20 12:50:47;;;;;;;36.13;17.80;;;22.10;53.00;;;;;;4987669;28;20481;-90
2022/03/20 12:53:24;;;;;;;31.47;18.90;;;22.10;53.00;;;;;;4974467;28;20433;-90
2022/03/20 12:56:01;;;;;;;34.90;19.37;;;22.10;53.00;;;;;;4969874;28;20447;-90
2022/03/20 12:58:28;;;;;;;35.40;20.43;;;22.10;53.00;;;;;;4970027;28;20463;-90
2022/03/20 13:00:55;;;;;;;35.83;19.87;;;22.10;53.00;;;;;;4969998;28;20987;-90
2022/03/20 13:03:22;;;;;;;40.43;22.10;;;22.10;53.00;;;;;;4973905;28;20720;-89
2022/03/20 13:05:50;;;;;;;42.23;19.20;;;22.10;53.00;;;;;;4974359;28;20436;-90
2022/03/20 13:08:26;;;;;;;38.30;20.60;;;22.10;53.00;;;;;;4992583;28;20437;-90
2022/03/20 13:10:56;;;;;;;31.10;20.53;;;22.10;53.00;;;;;;4988015;28;20464;-91
2022/03/20 13:13:30;;;;;;;38.40;21.50;;;22.10;53.00;;;;;;4989198;28;20440;-88
2022/03/20 13:16:04;;;;;;;32.00;19.67;;;22.10;53.00;;;;;;4988790;28;20918;-88
2022/03/20 13:18:31;;;;;;;37.33;20.60;;;22.10;53.00;;;;;;4973488;28;20498;-89
2022/03/20 13:21:03;;;;;;;34.20;18.07;;;22.10;53.00;;;;;;4989348;28;20847;-88
2022/03/20 13:23:29;;;;;;;39.70;21.03;;;22.10;53.00;;;;;;4971099;28;20437;-88
2022/03/20 13:26:00;;;;;;;35.77;19.33;;;22.10;53.00;;;;;;4988586;28;20441;-88
2022/03/20 13:28:40;;;;;;;30.47;19.27;;;22.10;52.90;;;;;;4989153;28;20439;-88
2022/03/20 13:31:20;;;;;;;28.17;17.67;;;22.10;52.90;;;;;;4971025;28;20524;-88
2022/03/20 13:33:52;;;;;;;39.00;18.00;;;22.10;52.90;;;;;;4973888;28;20476;-88
2022/03/20 13:36:19;;;;;;;31.40;19.67;;;22.10;52.90;;;;;;4971486;28;20421;-89
2022/03/20 13:38:47;;;;;;;26.67;16.77;;;22.10;52.90;;;;;;4971693;28;20425;-88
2022/03/20 13:41:24;;;;;;;30.57;17.67;;;22.10;52.90;;;;;;4983667;28;20425;-89
2022/03/20 13:44:04;;;;;;;31.70;19.20;;;22.10;53.40;;;;;;4970691;28;20429;-89
2022/03/20 13:46:36;;;;;;;26.17;17.43;;;22.10;52.90;;;;;;4972235;28;20579;-88
2022/03/20 13:49:07;;;;;;;33.63;17.67;;;22.10;52.80;;;;;;4971290;28;20408;-89
2022/03/20 13:51:35;;;;;;;32.47;18.30;;;22.10;52.80;;;;;;4971032;28;20508;-89
2022/03/20 13:54:14;;;;;;;32.63;19.53;;;22.10;52.80;;;;;;4987987;28;20467;-89